• Join FlightAware (Why Join?)
  • Login
  • US Flag 
06:30AM EDT


 

Airport Tracker/Info


-or-


 

Live Flight TrackerFlight Track Log ✈ JTL393 ✈ 20-Jul-2013 ✈ KMDW - KOMA

Flight Track Log - Related Links

Times and Time Zones

All times are in EDT time to prevent confusion due to time zone crossing. See the JTL393 flight status page for this flight to view local times or setup timezone preferences in your user account.

Time Position Orientation Groundspeed Altitude Reporting Facility
EDT Latitude Longitude Course Direction KTS MPH feet Rate Location/Type
05:54PM 41.8167 -87.7833 265° West 205 236 2,600  Level Chicago TRACON
05:55PM 41.7833 -87.8500 236° Southwest 235 270 3,000 600 Climbing Chicago TRACON
05:56PM 41.7667 -87.9333 255° West 229 264 3,900 600 Climbing Chicago TRACON
05:58PM 41.7386 -88.0264 248° West 242 278 4,400 840 Climbing Chicago Center
05:59PM 41.7403 -88.1475 271° West 279 321 5,900 660 Climbing Chicago Center
06:00PM 41.7347 -88.4806 265° West  Level FlightAware Approximate
06:00PM 41.7581 -88.2464 284° West 277 319 5,900  Level Chicago Center
06:01PM 41.7750 -88.3444 283° West 276 318 5,900  Level Chicago Center
06:02PM 41.7931 -88.4419 284° West 275 316 5,900 120 Level Chicago Center
06:03PM 41.8094 -88.5611 280° West 275 316 6,200 1,380 Climbing Chicago Center
06:04PM 41.8047 -88.6664 267° West 285 328 8,800 2,580 Climbing Chicago Center
06:05PM 41.8011 -88.7714 267° West 284 327 11,500 2,040 Climbing Chicago Center
06:06PM 41.7939 -88.8847 265° West 302 348 13,000 960 Climbing Chicago Center
06:07PM 41.7997 -89.0067 274° West 329 379 13,600 720 Climbing Chicago Center
06:08PM 41.8069 -89.1294 275° West 333 383 14,500 1,500 Climbing Chicago Center
06:09PM 41.8192 -89.2797 276° West 340 391 16,700 1,800 Climbing Chicago Center
06:10PM 41.8347 -89.3983 280° West 327 376 18,300 1,500 Climbing Chicago Center
06:11PM 41.8344 -89.5181 270° West 327 376 19,900 1,740 Climbing Chicago Center
06:12PM 41.8239 -89.6336 263° West 318 366 21,900 1,980 Climbing Chicago Center
06:13PM 41.8142 -89.7439 263° West 306 352 24,000 1,860 Climbing Chicago Center
06:14PM 41.8103 -89.8719 268° West 291 335 25,800 1,380 Climbing Chicago Center
06:15PM 41.8081 -89.9686 268° West 294 338 26,900 1,080 Climbing Chicago Center
06:16PM 41.8053 -90.0842 268° West 309 356 28,100 1,260 Climbing Chicago Center
06:17PM 41.7997 -90.2267 267° West 322 371 29,600 1,380 Climbing Chicago Center
06:18PM 41.7942 -90.3486 267° West 331 381 31,000 1,320 Climbing Chicago Center
06:19PM 41.7900 -90.4644 267° West 318 366 32,400 1,200 Climbing Chicago Center
06:20PM 41.7847 -90.5753 266° West 307 353 33,500 720 Climbing Chicago Center
06:21PM 41.7797 -90.6867 267° West 302 348 34,000 240 Climbing Chicago Center
06:22PM 41.7747 -90.8069 267° West 317 365 34,000 -120 Level Chicago Center
06:23PM 41.7686 -90.9631 267° West 348 400 33,800 -360 Descending Chicago Center
06:24PM 41.7617 -91.0992 266° West 364 419 33,300 -720 Descending Chicago Center
06:25PM 41.7556 -91.2425 267° West 381 438 32,400 -660 Descending Chicago Center
06:27PM 41.7494 -91.3867 267° West 390 449 32,000 -240 Descending Chicago Center
06:28PM 41.7433 -91.5264 267° West 381 438 32,000  Level Chicago Center
06:29PM 41.7353 -91.6658 266° West 378 435 32,000  Level Chicago Center
06:30PM 41.7278 -91.8331 267° West 376 433 32,000  Level Chicago Center
06:31PM 41.7194 -91.9733 265° West 380 437 32,000  Level Chicago Center
06:32PM 41.7133 -92.1117 267° West 377 434 32,000  Level Chicago Center
06:33PM 41.7056 -92.2511 266° West 378 435 32,000  Level Chicago Center
06:34PM 41.6981 -92.3925 266° West 382 440 32,000  Level Chicago Center
06:35PM 41.6894 -92.5333 265° West 382 440 32,000  Level Chicago Center
06:36PM 41.6792 -92.6989 265° West 377 434 32,000  Level Chicago Center
06:37PM 41.6706 -92.8494 266° West 383 441 32,000  Level Chicago Center
06:38PM 41.6636 -92.9889 266° West 380 437 32,000 -120 Level Chicago Center
06:39PM 41.6550 -93.1286 265° West 380 437 31,800 -540 Descending Chicago Center
06:40PM 41.6464 -93.2628 265° West 370 426 30,900 -900 Descending Chicago Center
06:41PM 41.6378 -93.3964 265° West 365 420 30,000 -900 Descending Chicago Center
06:42PM 41.6264 -93.5583 265° West 367 422 28,900 -1,020 Descending Minneapolis Center
06:43PM 41.6172 -93.7239 266° West 374 430 27,800 -1,020 Descending Minneapolis Center
06:44PM 41.6069 -93.8694 265° West 391 450 26,900 -840 Descending Minneapolis Center
06:45PM 41.5961 -94.0169 264° West 401 461 26,000 -1,020 Descending Minneapolis Center
06:46PM 41.5844 -94.1967 265° West 408 470 24,700 -1,680 Descending Minneapolis Center
06:47PM 41.5736 -94.3411 264° West 352 405 22,600 -1,860 Descending Minneapolis Center
06:49PM 41.5650 -94.4531 264° West 309 356 20,900 -1,440 Descending Minneapolis Center
06:50PM 41.5564 -94.5536 264° West 276 318 19,700 -1,200 Descending Minneapolis Center
06:51PM 41.5497 -94.6500 265° West 262 302 18,500 -1,260 Descending Minneapolis Center
06:52PM 41.5397 -94.7797 264° West 291 335 17,100 -1,260 Descending Minneapolis Center
06:53PM 41.5289 -94.9006 263° West 321 369 16,000 -960 Descending Minneapolis Center
06:53PM 41.5347 -94.9808 276° West 336 387 15,600 -1,140 Descending Minneapolis Center
06:54PM 41.5236 -95.1131 264° West 334 384 14,200 -1,560 Descending Minneapolis Center
06:55PM 41.5008 -95.2331 256° West 310 357 12,400 -1,620 Descending Minneapolis Center
06:56PM 41.4683 -95.3372 247° West 309 356 10,800 -1,680 Descending Minneapolis Center
06:57PM 41.4500 -95.4619 259° West 285 328 8,900 -1,680 Descending Minneapolis Center
06:58PM 41.4422 -95.5631 264° West 272 313 7,300 -1,620 Descending Minneapolis Center
06:59PM 41.4369 -95.6361 265° West 266 306 6,000 -1,620 Descending Minneapolis Center
07:00PM 41.4308 -95.6833 260° West 275 316 5,100 -1,440 Descending Minneapolis Center
07:01PM 41.4183 -95.7722 259° West 259 298 3,700 -1,020 Descending Minneapolis Center
07:02PM 41.3953 -95.8506 249° West 241 277 3,000 -840 Descending Minneapolis Center
07:03PM 41.3706 -95.8969 235° Southwest 184 212 2,400 -900 Descending Minneapolis Center
07:03PM 41.3369 -95.9231 210° Southwest 141 162 1,700 -720 Descending Minneapolis Center
07:04PM 41.3250 -95.9103 141° Southeast 171 197 1,400 -480 Descending Minneapolis Center
07:05PM 41.3008 -95.8878 145° Southeast 130 150 1,000 -420 Descending Minneapolis Center